Time;durP1;ratioP1;P1;durP2;ratioP2;P2;SDS_P1;SDS_P2;PMS_P1;PMS_P2;Temp;Humidity;BMP_temperature;BMP_pressure;BME280_temperature;BME280_humidity;BME280_pressure;Samples;Min_cycle;Max_cycle;Signal;HPM_P1;HPM_P2
2021/08/08 00:00:25;;;;;;;7.50;4.68;;;15.60;99.90;;;;;;5110387;28;20069;-50
2021/08/08 00:02:53;;;;;;;8.43;4.32;;;15.60;99.90;;;;;;5093060;28;20052;-51
2021/08/08 00:05:21;;;;;;;5.57;4.93;;;15.60;99.90;;;;;;5109949;28;20075;-52
2021/08/08 00:07:52;;;;;;;6.18;4.70;;;15.60;99.90;;;;;;5110044;28;20089;-48
2021/08/08 00:10:21;;;;;;;8.25;4.95;;;15.60;99.90;;;;;;5114402;28;20433;-54
2021/08/08 00:12:50;;;;;;;6.28;4.55;;;15.60;99.90;;;;;;5109721;28;20056;-51
2021/08/08 00:15:17;;;;;;;7.78;4.72;;;15.60;99.90;;;;;;5109803;28;20052;-52
2021/08/08 00:17:44;;;;;;;7.38;4.30;;;15.60;99.90;;;;;;5110073;28;20074;-55
2021/08/08 00:20:12;;;;;;;9.85;5.35;;;15.60;99.90;;;;;;5109604;28;20059;-53
2021/08/08 00:22:40;;;;;;;6.70;3.80;;;15.60;99.90;;;;;;5110036;28;20052;-53
2021/08/08 00:25:09;;;;;;;8.00;4.25;;;15.60;99.90;;;;;;5109462;28;20070;-53
2021/08/08 00:27:36;;;;;;;5.28;3.63;;;15.50;99.90;;;;;;5110123;28;20087;-51
2021/08/08 00:30:08;;;;;;;6.72;3.80;;;15.40;99.90;;;;;;5109382;28;20050;-53
2021/08/08 00:32:38;;;;;;;5.30;3.75;;;15.50;99.90;;;;;;5108878;28;20090;-53
2021/08/08 00:35:08;;;;;;;6.90;4.00;;;15.40;99.90;;;;;;5073929;28;20070;-52
2021/08/08 00:37:36;;;;;;;6.15;3.92;;;15.40;99.90;;;;;;5070770;28;20056;-52
2021/08/08 00:40:07;;;;;;;7.97;4.32;;;15.40;99.90;;;;;;5080330;28;20487;-52
2021/08/08 00:42:33;;;;;;;6.43;3.92;;;15.30;99.90;;;;;;5091632;28;20130;-54
2021/08/08 00:45:01;;;;;;;6.40;3.55;;;15.40;99.90;;;;;;5091067;28;20510;-54
2021/08/08 00:47:28;;;;;;;8.07;3.40;;;15.30;99.90;;;;;;5090931;28;20115;-50
2021/08/08 00:49:55;;;;;;;8.63;4.18;;;15.30;99.90;;;;;;5090867;28;20134;-49
2021/08/08 00:52:23;;;;;;;6.32;3.83;;;15.30;99.90;;;;;;5093578;28;20051;-52
2021/08/08 00:54:49;;;;;;;4.20;3.78;;;15.40;99.90;;;;;;5109732;28;20116;-50
2021/08/08 00:57:19;;;;;;;5.32;3.45;;;15.40;99.90;;;;;;5091030;28;20047;-51
2021/08/08 00:59:51;;;;;;;7.00;3.33;;;15.40;99.90;;;;;;5090951;28;20048;-51
2021/08/08 01:02:20;;;;;;;6.78;3.55;;;15.40;99.90;;;;;;5090497;28;20052;-54
2021/08/08 01:05:09;;;;;;;5.78;3.75;;;15.40;99.90;;;;;;5091014;28;20139;-53
2021/08/08 01:08:08;;;;;;;6.60;3.83;;;15.40;99.90;;;;;;5070423;28;20127;-53
2021/08/08 01:10:42;;;;;;;5.55;3.78;;;15.50;99.90;;;;;;5070369;28;20125;-55
2021/08/08 01:13:10;;;;;;;7.03;4.05;;;15.40;99.90;;;;;;5081861;28;20068;-53
2021/08/08 01:15:38;;;;;;;7.38;3.90;;;15.50;99.90;;;;;;5090951;28;20046;-55
2021/08/08 01:18:06;;;;;;;6.55;4.55;;;15.40;99.90;;;;;;5090405;28;20054;-57
2021/08/08 01:20:37;;;;;;;6.43;4.20;;;15.50;99.90;;;;;;5091261;28;20052;-56
2021/08/08 01:23:08;;;;;;;7.35;5.13;;;15.50;99.90;;;;;;5091229;28;20059;-56
2021/08/08 01:25:38;;;;;;;7.15;4.70;;;15.50;99.90;;;;;;5090963;28;20040;-55
2021/08/08 01:28:06;;;;;;;8.27;5.07;;;15.50;99.90;;;;;;5090976;28;20123;-56
2021/08/08 01:30:36;;;;;;;8.38;5.43;;;15.50;99.90;;;;;;5090572;28;20075;-56
2021/08/08 01:33:09;;;;;;;8.32;5.32;;;15.40;99.90;;;;;;5089991;28;20148;-54
2021/08/08 01:35:58;;;;;;;6.78;5.18;;;15.50;99.90;;;;;;5088505;28;20511;-53
2021/08/08 01:38:33;;;;;;;6.90;4.82;;;15.50;99.90;;;;;;5070356;28;20040;-54
2021/08/08 01:41:06;;;;;;;9.48;5.30;;;15.50;99.90;;;;;;5089787;28;20147;-54
2021/08/08 01:43:43;;;;;;;7.50;5.18;;;15.40;99.90;;;;;;5090935;28;20058;-54
2021/08/08 01:46:11;;;;;;;7.63;5.78;;;15.40;99.90;;;;;;5107567;28;20130;-50
2021/08/08 01:48:58;;;;;;;7.90;4.70;;;15.40;99.90;;;;;;5092037;28;20108;-52
2021/08/08 01:51:28;;;;;;;10.13;5.95;;;15.50;99.90;;;;;;5090048;28;20415;-53
2021/08/08 01:53:56;;;;;;;9.02;4.78;;;15.50;99.90;;;;;;5089610;28;20059;-49
2021/08/08 01:56:22;;;;;;;7.63;5.80;;;15.40;99.90;;;;;;5115025;28;20042;-51
2021/08/08 01:58:52;;;;;;;9.32;6.18;;;15.40;99.90;;;;;;5090224;28;20087;-51
2021/08/08 02:01:27;;;;;;;7.40;5.38;;;15.40;99.90;;;;;;5089808;28;20047;-55
2021/08/08 02:03:53;;;;;;;9.23;5.82;;;15.40;99.90;;;;;;5092997;28;20503;-54
2021/08/08 02:06:20;;;;;;;7.38;5.97;;;15.40;99.90;;;;;;5094296;28;20043;-55
2021/08/08 02:08:56;;;;;;;9.95;6.60;;;15.40;99.90;;;;;;5089662;28;20515;-53
2021/08/08 02:11:25;;;;;;;8.57;6.10;;;15.40;99.90;;;;;;5092805;28;20044;-53
2021/08/08 02:14:03;;;;;;;9.43;6.75;;;15.50;99.90;;;;;;5097640;28;20139;-52
2021/08/08 02:16:33;;;;;;;8.90;6.28;;;15.40;99.90;;;;;;5090994;28;20532;-52
2021/08/08 02:19:07;;;;;;;8.30;7.00;;;15.50;99.90;;;;;;5090808;28;20055;-52
2021/08/08 02:21:41;;;;;;;8.20;6.95;;;15.50;99.90;;;;;;5090570;28;20051;-51
2021/08/08 02:24:07;;;;;;;11.43;7.18;;;15.50;99.90;;;;;;5090393;28;20043;-53
2021/08/08 02:26:43;;;;;;;8.65;7.75;;;15.50;99.90;;;;;;5090191;28;20131;-52
2021/08/08 02:29:14;;;;;;;10.60;7.43;;;15.50;99.90;;;;;;5089030;28;20079;-54
2021/08/08 02:31:44;;;;;;;9.65;7.95;;;15.60;99.90;;;;;;5089740;28;20058;-51
2021/08/08 02:34:19;;;;;;;10.82;8.18;;;15.60;99.90;;;;;;5089831;28;20043;-53
2021/08/08 02:36:47;;;;;;;9.10;8.15;;;15.60;99.90;;;;;;5090025;28;20054;-53
2021/08/08 02:39:14;;;;;;;11.30;8.98;;;15.50;99.90;;;;;;5089848;28;20051;-50
2021/08/08 02:41:40;;;;;;;11.70;8.75;;;15.50;99.90;;;;;;5090037;28;20055;-55
2021/08/08 02:44:07;;;;;;;10.60;9.45;;;15.60;99.90;;;;;;5089298;28;20163;-53
2021/08/08 02:46:35;;;;;;;10.05;9.15;;;15.60;99.90;;;;;;5107805;28;20044;-55
2021/08/08 02:49:02;;;;;;;10.48;9.38;;;15.60;99.90;;;;;;5088639;28;20052;-51
2021/08/08 02:51:32;;;;;;;10.70;9.38;;;15.60;99.90;;;;;;5090090;28;20147;-53
2021/08/08 02:53:59;;;;;;;11.73;9.82;;;15.60;99.90;;;;;;5092068;28;20566;-54
2021/08/08 02:56:28;;;;;;;11.40;10.05;;;15.60;99.90;;;;;;5076107;28;20067;-53
2021/08/08 02:58:54;;;;;;;11.73;10.52;;;15.60;99.90;;;;;;5096348;28;20059;-54
2021/08/08 03:01:21;;;;;;;11.43;10.23;;;15.60;99.90;;;;;;5093070;28;20559;-53
2021/08/08 03:03:53;;;;;;;14.95;11.05;;;15.70;99.90;;;;;;5078265;28;20473;-53
2021/08/08 03:06:19;;;;;;;12.43;11.18;;;15.70;99.90;;;;;;5092063;28;20472;-53
2021/08/08 03:08:47;;;;;;;12.30;11.02;;;15.70;99.90;;;;;;5092462;28;20047;-54
2021/08/08 03:11:18;;;;;;;12.07;10.98;;;15.70;99.90;;;;;;5111024;28;20507;-52
2021/08/08 03:13:46;;;;;;;13.10;11.70;;;15.70;99.90;;;;;;5092883;28;20093;-56
2021/08/08 03:16:12;;;;;;;14.15;12.52;;;15.70;99.90;;;;;;5092497;28;20089;-54
2021/08/08 03:18:43;;;;;;;13.00;11.90;;;15.70;99.90;;;;;;5092585;28;20488;-54
2021/08/08 03:21:12;;;;;;;13.70;12.27;;;15.70;99.90;;;;;;5092345;28;20044;-56
2021/08/08 03:23:38;;;;;;;14.43;12.93;;;15.70;99.90;;;;;;5092508;28;20075;-52
2021/08/08 03:26:08;;;;;;;15.25;13.65;;;15.70;99.90;;;;;;5092397;28;20067;-53
2021/08/08 03:28:40;;;;;;;15.75;13.88;;;15.70;99.90;;;;;;5075650;28;20089;-54
2021/08/08 03:31:07;;;;;;;15.63;14.20;;;15.70;99.90;;;;;;5092717;28;20053;-54
2021/08/08 03:33:33;;;;;;;15.45;13.85;;;15.70;99.90;;;;;;5091750;28;20058;-53
2021/08/08 03:36:00;;;;;;;15.65;14.15;;;15.70;99.90;;;;;;5110499;28;20054;-55
2021/08/08 03:38:27;;;;;;;16.10;14.45;;;15.80;99.90;;;;;;5092144;28;20093;-55
2021/08/08 03:40:56;;;;;;;17.75;15.75;;;15.80;99.90;;;;;;5110738;28;20051;-54
2021/08/08 03:43:25;;;;;;;16.35;14.77;;;15.80;99.90;;;;;;5092013;28;20044;-52
2021/08/08 03:45:52;;;;;;;16.65;14.88;;;15.80;99.90;;;;;;5092761;28;20047;-55
2021/08/08 03:48:21;;;;;;;17.55;15.68;;;15.80;99.90;;;;;;5110498;28;20078;-55
2021/08/08 03:50:51;;;;;;;19.48;15.80;;;15.80;99.90;;;;;;5109669;28;20055;-53
2021/08/08 03:53:21;;;;;;;18.77;14.82;;;15.80;99.90;;;;;;5109682;28;20055;-52
2021/08/08 03:55:48;;;;;;;16.80;14.00;;;15.80;99.90;;;;;;5110253;28;20051;-55
2021/08/08 03:58:17;;;;;;;14.20;12.90;;;15.80;99.90;;;;;;5092297;28;20051;-52
2021/08/08 04:00:46;;;;;;;14.98;13.40;;;15.80;99.90;;;;;;5091612;28;20066;-54
2021/08/08 04:03:13;;;;;;;17.10;14.25;;;15.80;99.90;;;;;;5074299;28;20047;-55
2021/08/08 04:05:42;;;;;;;16.27;13.85;;;15.80;99.90;;;;;;5091058;28;20044;-53
2021/08/08 04:08:11;;;;;;;17.52;15.68;;;15.80;99.90;;;;;;5109081;28;20496;-52
2021/08/08 04:10:37;;;;;;;15.77;14.18;;;15.80;99.90;;;;;;5093204;28;20048;-52
2021/08/08 04:13:07;;;;;;;17.42;14.48;;;15.80;99.90;;;;;;5092053;28;20047;-53
2021/08/08 04:15:34;;;;;;;15.32;12.65;;;15.90;99.90;;;;;;5091240;28;20495;-52
2021/08/08 04:18:05;;;;;;;16.50;14.07;;;15.90;99.90;;;;;;5091677;28;20048;-54
2021/08/08 04:20:31;;;;;;;18.38;14.13;;;15.90;99.90;;;;;;5110059;28;20050;-50
2021/08/08 04:22:57;;;;;;;16.50;13.23;;;15.90;99.90;;;;;;5117075;28;20088;-53
2021/08/08 04:25:29;;;;;;;17.33;15.07;;;15.90;99.90;;;;;;5109426;28;20146;-52
2021/08/08 04:27:56;;;;;;;;;;;16.00;99.90;;;;;;5110136;28;20063;-49
2021/08/08 04:30:22;;;;;;;16.58;13.30;;;16.00;99.90;;;;;;5109185;28;20260;-49
2021/08/08 04:32:49;;;;;;;14.65;13.35;;;16.00;99.90;;;;;;5114813;28;20040;-52
2021/08/08 04:35:20;;;;;;;14.32;11.95;;;16.10;99.90;;;;;;5074483;28;20055;-51
2021/08/08 04:37:51;;;;;;;14.02;12.55;;;16.10;99.90;;;;;;5098539;28;20059;-52
2021/08/08 04:40:17;;;;;;;11.93;10.65;;;16.10;99.90;;;;;;5074308;28;20610;-53
2021/08/08 04:42:43;;;;;;;11.13;9.38;;;16.10;99.90;;;;;;5090896;28;20128;-52
2021/08/08 04:45:10;;;;;;;9.20;8.38;;;16.10;99.90;;;;;;5090369;28;20092;-52
2021/08/08 04:47:44;;;;;;;8.45;7.57;;;16.00;99.90;;;;;;5090893;28;20054;-52
2021/08/08 04:50:13;;;;;;;10.45;8.43;;;16.00;99.90;;;;;;5091677;28;20096;-51
2021/08/08 04:52:45;;;;;;;9.32;7.97;;;16.00;99.90;;;;;;5091873;28;20048;-54
2021/08/08 04:55:15;;;;;;;9.30;7.43;;;15.90;99.90;;;;;;5091294;28;20085;-56
2021/08/08 04:57:42;;;;;;;10.60;7.57;;;15.90;99.90;;;;;;5095290;28;20040;-52
2021/08/08 05:00:12;;;;;;;7.47;6.38;;;15.90;99.90;;;;;;5095458;28;20040;-54
2021/08/08 05:02:44;;;;;;;8.10;6.90;;;15.80;99.90;;;;;;5110352;28;20075;-54
2021/08/08 05:05:11;;;;;;;9.52;7.28;;;15.80;99.90;;;;;;5091756;28;20059;-54
2021/08/08 05:07:39;;;;;;;8.82;7.93;;;15.80;99.90;;;;;;5093152;28;20122;-53
2021/08/08 05:10:13;;;;;;;9.90;7.63;;;15.70;99.90;;;;;;5094845;28;20515;-55
2021/08/08 05:12:41;;;;;;;9.07;7.40;;;15.70;99.90;;;;;;5091381;28;20047;-51
2021/08/08 05:15:08;;;;;;;11.43;8.80;;;15.60;99.90;;;;;;5090090;28;20415;-55
2021/08/08 05:17:38;;;;;;;10.90;8.35;;;15.50;99.90;;;;;;5091260;28;20061;-55
2021/08/08 05:20:08;;;;;;;13.15;8.60;;;15.50;99.90;;;;;;5109181;28;20055;-57
2021/08/08 05:22:34;;;;;;;9.88;8.68;;;15.40;99.90;;;;;;5092647;28;20050;-58
2021/08/08 05:25:01;;;;;;;10.25;9.25;;;15.40;99.90;;;;;;5090781;28;20508;-53
2021/08/08 05:27:28;;;;;;;12.75;9.88;;;15.40;99.90;;;;;;5090427;28;20158;-55
2021/08/08 05:29:57;;;;;;;11.98;9.75;;;15.40;99.90;;;;;;5091127;28;20044;-56
2021/08/08 05:32:23;;;;;;;10.10;8.48;;;15.50;99.90;;;;;;5089495;28;20134;-49
2021/08/08 05:34:52;;;;;;;11.65;9.52;;;15.50;99.90;;;;;;5088628;28;20058;-50
2021/08/08 05:37:19;;;;;;;12.55;9.70;;;15.50;99.90;;;;;;5108580;28;20093;-54
2021/08/08 05:39:45;;;;;;;12.57;9.93;;;15.50;99.90;;;;;;5108681;28;20563;-53
2021/08/08 05:42:11;;;;;;;9.73;8.07;;;15.50;99.90;;;;;;5109032;28;20629;-55
2021/08/08 05:44:38;;;;;;;11.75;9.18;;;15.50;99.90;;;;;;5108523;28;20066;-56
2021/08/08 05:47:05;;;;;;;9.18;7.35;;;15.50;99.90;;;;;;5092963;28;20058;-53
2021/08/08 05:49:33;;;;;;;10.77;7.88;;;15.50;99.90;;;;;;5090640;28;20043;-55
2021/08/08 05:52:05;;;;;;;10.18;8.57;;;15.50;99.90;;;;;;5108745;28;20063;-55
2021/08/08 05:54:32;;;;;;;13.13;9.57;;;15.50;99.90;;;;;;5109829;28;20139;-49
2021/08/08 05:56:58;;;;;;;12.63;9.93;;;15.60;99.90;;;;;;5090510;28;20139;-50
2021/08/08 05:59:28;;;;;;;12.45;10.35;;;15.50;99.90;;;;;;5090350;28;20051;-49
2021/08/08 06:01:54;;;;;;;17.95;12.65;;;15.50;99.90;;;;;;5074761;28;20043;-54
2021/08/08 06:04:21;;;;;;;20.13;15.55;;;15.60;99.90;;;;;;5088873;28;20044;-55
2021/08/08 06:06:52;;;;;;;19.65;15.82;;;15.60;99.90;;;;;;5089306;28;20035;-52
2021/08/08 06:09:21;;;;;;;27.83;19.90;;;15.60;99.90;;;;;;5096301;28;20142;-53
2021/08/08 06:11:50;;;;;;;25.52;20.85;;;15.60;99.90;;;;;;5108106;27;20043;-51
2021/08/08 06:14:18;;;;;;;23.55;19.13;;;15.60;99.90;;;;;;5107871;28;20058;-53
2021/08/08 06:16:47;;;;;;;25.70;20.35;;;15.70;99.90;;;;;;5105052;28;20040;-54
2021/08/08 06:19:14;;;;;;;30.88;21.52;;;15.70;99.90;;;;;;5102284;28;20044;-55
2021/08/08 06:21:43;;;;;;;27.85;20.00;;;15.70;99.90;;;;;;5089976;28;20791;-55
2021/08/08 06:24:10;;;;;;;26.15;18.67;;;15.70;99.90;;;;;;5089666;28;20067;-54
2021/08/08 06:26:39;;;;;;;27.70;20.10;;;15.80;99.90;;;;;;5108965;28;20483;-57
2021/08/08 06:29:06;;;;;;;29.65;20.92;;;15.80;99.90;;;;;;5115514;28;20048;-56
2021/08/08 06:31:36;;;;;;;26.00;18.67;;;15.90;99.90;;;;;;5097226;28;20119;-57
2021/08/08 06:34:03;;;;;;;27.23;19.27;;;15.90;99.90;;;;;;5100304;28;20047;-56
2021/08/08 06:36:29;;;;;;;29.30;19.00;;;15.90;99.90;;;;;;5089411;28;20043;-54
2021/08/08 06:39:03;;;;;;;26.25;17.77;;;15.90;99.90;;;;;;5092983;28;20390;-56
2021/08/08 06:41:31;;;;;;;26.63;15.52;;;15.80;99.90;;;;;;5096381;28;20116;-54
2021/08/08 06:44:01;;;;;;;24.10;16.70;;;15.80;99.90;;;;;;5092352;28;20055;-54
2021/08/08 06:46:29;;;;;;;22.80;15.65;;;15.80;99.90;;;;;;5094694;28;20130;-57
2021/08/08 06:49:00;;;;;;;26.98;16.08;;;15.80;99.90;;;;;;5056822;28;20040;-54
2021/08/08 06:51:26;;;;;;;25.73;17.17;;;15.80;99.90;;;;;;5091505;28;20052;-54
2021/08/08 06:53:53;;;;;;;26.15;16.85;;;15.80;99.90;;;;;;5107159;28;20052;-55
2021/08/08 06:56:19;;;;;;;21.92;14.23;;;15.90;99.90;;;;;;5110191;28;20051;-55
2021/08/08 06:58:53;;;;;;;20.60;15.07;;;16.00;99.90;;;;;;5117169;28;20646;-55
2021/08/08 07:01:21;;;;;;;26.80;16.33;;;16.00;99.90;;;;;;5106708;28;20040;-54
2021/08/08 07:03:47;;;;;;;21.05;15.60;;;16.10;99.90;;;;;;5111339;28;20047;-55
2021/08/08 07:06:14;;;;;;;18.42;12.82;;;16.10;99.90;;;;;;5075216;28;20052;-55
2021/08/08 07:08:42;;;;;;;22.02;13.15;;;16.20;99.90;;;;;;5114426;28;20403;-53
2021/08/08 07:11:09;;;;;;;18.13;11.68;;;16.30;99.90;;;;;;5074874;28;20393;-55
2021/08/08 07:13:39;;;;;;;19.52;11.98;;;16.50;99.90;;;;;;5092521;28;20048;-56
2021/08/08 07:16:06;;;;;;;24.48;15.25;;;16.70;99.90;;;;;;5075649;28;20086;-55
2021/08/08 07:18:36;;;;;;;20.23;12.27;;;17.00;99.90;;;;;;5111112;28;20070;-56
2021/08/08 07:21:07;;;;;;;18.80;11.93;;;17.30;99.90;;;;;;5093319;28;20388;-56
2021/08/08 07:23:33;;;;;;;16.88;11.93;;;17.20;99.90;;;;;;5111370;28;20054;-55
2021/08/08 07:26:00;;;;;;;18.40;11.10;;;17.10;99.90;;;;;;5083558;28;20040;-56
2021/08/08 07:28:27;;;;;;;20.58;11.48;;;17.20;99.90;;;;;;5109463;28;20502;-53
2021/08/08 07:30:53;;;;;;;15.82;10.52;;;17.10;99.90;;;;;;5093350;28;20047;-56
2021/08/08 07:33:23;;;;;;;23.90;11.45;;;17.00;99.90;;;;;;5092450;28;20859;-55
2021/08/08 07:35:50;;;;;;;17.70;10.18;;;16.90;99.90;;;;;;5091693;28;20070;-55
2021/08/08 07:38:19;;;;;;;23.38;11.60;;;17.00;99.90;;;;;;5091937;28;20043;-55
2021/08/08 07:40:48;;;;;;;18.02;11.25;;;16.90;99.90;;;;;;5092704;28;20059;-55
2021/08/08 07:43:15;;;;;;;19.50;11.20;;;16.90;99.90;;;;;;5110551;28;20119;-56
2021/08/08 07:45:44;;;;;;;18.02;11.23;;;16.80;99.90;;;;;;5091855;28;20042;-56
2021/08/08 07:48:10;;;;;;;18.15;11.02;;;16.90;99.90;;;;;;5092280;28;20516;-56
2021/08/08 07:50:39;;;;;;;18.10;11.35;;;17.00;99.90;;;;;;5097705;28;20039;-55
2021/08/08 07:53:06;;;;;;;17.65;11.45;;;17.10;99.90;;;;;;5094722;28;20461;-54
2021/08/08 07:55:32;;;;;;;18.90;9.18;;;17.20;99.90;;;;;;5111270;28;20043;-54
2021/08/08 07:58:01;;;;;;;20.02;10.13;;;17.40;99.90;;;;;;5091674;28;20488;-55
2021/08/08 08:00:27;;;;;;;15.60;8.50;;;17.50;99.90;;;;;;5091963;28;20070;-52
2021/08/08 08:03:00;;;;;;;17.02;9.20;;;17.40;99.90;;;;;;5093002;28;20058;-53
2021/08/08 08:05:27;;;;;;;17.58;9.50;;;17.30;99.90;;;;;;5091895;28;20483;-55
2021/08/08 08:07:55;;;;;;;14.57;7.05;;;17.30;99.90;;;;;;5091587;28;20142;-57
2021/08/08 08:10:31;;;;;;;14.55;8.60;;;17.10;99.90;;;;;;5092795;28;20495;-57
2021/08/08 08:13:02;;;;;;;17.85;9.23;;;17.20;99.90;;;;;;5091336;28;20126;-58
2021/08/08 08:15:28;;;;;;;14.50;8.00;;;17.20;99.90;;;;;;5091531;28;20066;-58
2021/08/08 08:17:55;;;;;;;17.20;9.00;;;17.20;99.90;;;;;;5098614;28;20043;-57
2021/08/08 08:20:23;;;;;;;15.02;8.93;;;17.30;99.90;;;;;;5074768;28;20398;-58
2021/08/08 08:22:53;;;;;;;16.42;8.95;;;17.40;99.90;;;;;;5093340;28;20591;-54
2021/08/08 08:25:19;;;;;;;14.10;7.95;;;17.40;99.90;;;;;;5113346;28;20046;-57
2021/08/08 08:27:46;;;;;;;14.88;7.53;;;17.30;99.90;;;;;;5088780;28;20040;-57
2021/08/08 08:30:13;;;;;;;12.10;6.30;;;17.20;99.90;;;;;;5098168;28;20047;-54
2021/08/08 08:32:39;;;;;;;12.82;6.45;;;17.30;99.90;;;;;;5094446;27;20039;-57
2021/08/08 08:35:06;;;;;;;11.15;6.20;;;17.40;99.90;;;;;;5076775;28;20035;-58
2021/08/08 08:37:35;;;;;;;12.70;5.78;;;17.40;99.90;;;;;;5114299;27;20049;-57
2021/08/08 08:40:03;;;;;;;14.88;7.32;;;17.30;99.90;;;;;;5102445;28;20052;-56
2021/08/08 08:42:30;;;;;;;14.27;7.22;;;17.20;99.90;;;;;;5077734;28;20044;-57
2021/08/08 08:44:57;;;;;;;13.00;6.57;;;16.90;99.90;;;;;;5063077;28;20068;-58
2021/08/08 08:47:28;;;;;;;10.45;6.15;;;16.80;99.90;;;;;;5088095;28;20036;-58
2021/08/08 08:49:58;;;;;;;11.35;6.40;;;16.70;99.90;;;;;;5088161;28;20055;-55
2021/08/08 08:52:29;;;;;;;14.90;7.72;;;16.70;99.90;;;;;;5095561;28;20155;-57
2021/08/08 08:54:57;;;;;;;11.90;6.82;;;16.80;99.90;;;;;;5108903;28;20042;-57
2021/08/08 08:57:27;;;;;;;14.85;8.90;;;16.70;99.90;;;;;;5098128;28;20040;-57
2021/08/08 08:59:57;;;;;;;12.32;7.97;;;16.80;99.90;;;;;;5093281;28;20438;-57
2021/08/08 09:02:23;;;;;;;15.25;8.02;;;16.80;99.90;;;;;;5109015;28;20048;-58
2021/08/08 09:04:53;;;;;;;16.55;8.52;;;16.90;99.90;;;;;;5073683;28;20048;-55
2021/08/08 09:07:19;;;;;;;15.77;8.85;;;16.90;99.90;;;;;;5114071;28;20043;-58
2021/08/08 09:09:46;;;;;;;13.93;9.18;;;17.00;99.90;;;;;;5090440;28;20143;-57
2021/08/08 09:12:23;;;;;;;14.32;9.23;;;17.00;99.90;;;;;;5072673;28;20056;-57
2021/08/08 09:15:00;;;;;;;19.02;9.88;;;17.10;99.90;;;;;;5088367;28;20049;-57
2021/08/08 09:17:28;;;;;;;19.23;9.35;;;17.20;99.90;;;;;;5093770;28;20104;-59
2021/08/08 09:20:03;;;;;;;19.73;9.25;;;17.30;99.90;;;;;;5093234;28;20442;-59
2021/08/08 09:22:31;;;;;;;17.05;8.35;;;17.40;99.90;;;;;;5087688;28;20048;-59
2021/08/08 09:25:01;;;;;;;17.55;9.98;;;17.50;99.90;;;;;;5089093;28;20040;-59
2021/08/08 09:27:37;;;;;;;18.63;9.20;;;17.60;99.90;;;;;;5109663;28;20040;-59
2021/08/08 09:30:15;;;;;;;19.42;9.02;;;18.00;99.90;;;;;;5089810;28;20043;-60
2021/08/08 09:32:42;;;;;;;17.23;8.95;;;18.40;99.90;;;;;;5112201;28;20039;-59
2021/08/08 09:35:13;;;;;;;21.00;8.38;;;18.80;99.90;;;;;;5073303;28;20047;-60
2021/08/08 09:37:40;;;;;;;21.17;8.45;;;19.30;99.90;;;;;;5090558;28;20410;-60
2021/08/08 09:40:16;;;;;;;16.70;6.40;;;19.50;99.90;;;;;;5108997;28;20051;-60
2021/08/08 09:42:44;;;;;;;21.83;6.28;;;19.60;99.90;;;;;;5092200;27;20039;-57
2021/08/08 09:45:15;;;;;;;16.40;6.03;;;19.50;99.90;;;;;;5089799;28;20043;-57
2021/08/08 09:47:51;;;;;;;17.85;5.75;;;19.40;99.90;;;;;;5108551;28;20124;-57
2021/08/08 09:50:19;;;;;;;14.75;5.65;;;19.60;99.90;;;;;;5108599;28;20078;-57
2021/08/08 09:52:56;;;;;;;14.90;5.75;;;19.50;99.90;;;;;;5108141;28;20581;-57
2021/08/08 09:55:30;;;;;;;17.95;5.00;;;19.40;99.90;;;;;;5108692;28;20058;-57
2021/08/08 09:57:58;;;;;;;13.65;4.60;;;19.50;99.90;;;;;;5108395;28;20075;-56
2021/08/08 10:00:33;;;;;;;14.10;4.80;;;19.60;99.90;;;;;;5096522;28;20051;-56
2021/08/08 10:03:01;;;;;;;17.50;4.75;;;19.80;99.90;;;;;;5104303;28;20110;-54
2021/08/08 10:05:29;;;;;;;12.48;4.95;;;19.60;99.90;;;;;;5077371;28;20456;-54
2021/08/08 10:07:56;;;;;;;15.13;5.30;;;19.40;99.90;;;;;;5107915;28;20087;-54
2021/08/08 10:10:23;;;;;;;16.20;5.40;;;19.60;99.90;;;;;;5107515;28;20040;-55
2021/08/08 10:13:15;;;;;;;11.32;4.50;;;19.40;99.90;;;;;;5107013;28;20138;-56
2021/08/08 10:15:46;;;;;;;13.52;4.10;;;19.30;99.90;;;;;;5089159;28;20047;-56
2021/08/08 10:18:16;;;;;;;;;;;20.00;99.90;;;;;;5108305;28;20499;-56
2021/08/08 10:20:45;;;;;;;15.18;6.50;;;19.80;99.90;;;;;;5107920;28;19924;-56
2021/08/08 10:23:14;;;;;;;13.63;5.80;;;19.50;99.90;;;;;;5108473;28;20055;-56
2021/08/08 10:25:47;;;;;;;11.75;4.28;;;19.60;99.90;;;;;;5107506;28;20092;-57
2021/08/08 10:28:14;;;;;;;17.67;5.10;;;20.10;99.90;;;;;;5106747;28;20052;-55
2021/08/08 10:30:48;;;;;;;9.93;3.70;;;20.70;99.90;;;;;;5107561;28;20077;-56
2021/08/08 10:33:22;;;;;;;13.98;4.65;;;20.60;99.90;;;;;;5112169;28;20055;-56
2021/08/08 10:35:54;;;;;;;10.73;4.45;;;20.20;99.90;;;;;;5089131;28;20046;-56
2021/08/08 10:38:23;;;;;;;13.18;3.92;;;20.90;99.90;;;;;;5107828;28;20048;-57
2021/08/08 10:41:07;;;;;;;13.20;4.30;;;21.50;99.90;;;;;;5108252;28;20091;-57
2021/08/08 10:43:44;;;;;;;12.82;4.03;;;21.30;99.90;;;;;;5107474;28;20051;-56
2021/08/08 10:46:19;;;;;;;14.13;3.92;;;20.90;99.90;;;;;;5108857;28;20040;-57
2021/08/08 10:49:01;;;;;;;15.35;4.63;;;20.90;99.90;;;;;;5107603;28;20412;-56
2021/08/08 10:51:32;;;;;;;11.50;4.07;;;20.80;99.90;;;;;;5089980;28;20055;-56
2021/08/08 10:54:09;;;;;;;14.48;4.53;;;20.40;99.90;;;;;;5107769;28;20066;-53
2021/08/08 10:56:46;;;;;;;13.43;4.30;;;20.30;99.90;;;;;;5112367;28;20503;-55
2021/08/08 10:59:19;;;;;;;12.85;4.28;;;20.00;99.90;;;;;;5108042;28;20074;-55
2021/08/08 11:02:09;;;;;;;12.70;4.32;;;19.90;99.90;;;;;;5106308;28;20047;-55
2021/08/08 11:04:38;;;;;;;12.90;4.18;;;19.40;99.90;;;;;;5107596;28;20055;-55
2021/08/08 11:07:07;;;;;;;16.90;4.90;;;19.30;99.90;;;;;;5111843;28;20060;-53
2021/08/08 11:09:35;;;;;;;19.13;4.28;;;19.10;99.90;;;;;;5108165;28;20047;-53
2021/08/08 11:12:04;;;;;;;10.60;4.00;;;19.30;99.90;;;;;;5107986;28;20044;-53
2021/08/08 11:14:33;;;;;;;11.57;4.30;;;19.20;99.90;;;;;;5096744;28;20140;-54
2021/08/08 11:17:09;;;;;;;14.57;5.70;;;18.90;99.90;;;;;;5099024;28;20079;-56
2021/08/08 11:19:41;;;;;;;14.73;5.97;;;18.40;99.90;;;;;;5111541;28;20070;-55
2021/08/08 11:22:11;;;;;;;;;;;17.90;99.90;;;;;;5111723;28;20130;-57
2021/08/08 11:24:43;;;;;;;17.88;6.68;;;17.60;99.90;;;;;;5111553;28;20271;-58
2021/08/08 11:27:10;;;;;;;14.23;6.28;;;17.50;99.90;;;;;;5111973;28;20059;-57
2021/08/08 11:29:40;;;;;;;14.43;6.68;;;17.50;99.90;;;;;;5092376;28;20093;-58
2021/08/08 11:32:07;;;;;;;19.02;7.78;;;17.60;99.90;;;;;;5112104;28;20053;-59
2021/08/08 11:34:34;;;;;;;14.88;6.63;;;17.90;99.90;;;;;;5113093;28;20035;-58
2021/08/08 11:37:03;;;;;;;15.55;6.07;;;18.40;99.90;;;;;;5092310;28;20043;-58
2021/08/08 11:39:36;;;;;;;15.70;5.97;;;19.10;99.90;;;;;;5109091;28;20051;-59
2021/08/08 11:42:10;;;;;;;13.38;4.82;;;19.40;99.90;;;;;;5092485;28;20536;-58
2021/08/08 11:44:41;;;;;;;14.15;4.97;;;20.10;99.90;;;;;;5110939;28;20046;-59
2021/08/08 11:47:09;;;;;;;12.52;3.85;;;19.80;99.90;;;;;;5109463;28;20479;-59
2021/08/08 11:49:49;;;;;;;9.43;4.13;;;20.10;99.90;;;;;;5113519;28;20039;-59
2021/08/08 11:52:18;;;;;;;10.18;3.65;;;20.40;99.90;;;;;;5114377;28;20059;-58
2021/08/08 11:55:07;;;;;;;13.20;3.53;;;20.80;99.90;;;;;;5110038;28;20093;-58
2021/08/08 11:57:34;;;;;;;10.45;3.53;;;20.90;99.90;;;;;;5117165;28;20161;-59
2021/08/08 12:00:04;;;;;;;11.23;4.00;;;21.10;99.90;;;;;;5111063;28;20051;-58
2021/08/08 12:02:39;;;;;;;11.40;3.47;;;21.20;99.90;;;;;;5110344;28;20055;-58
2021/08/08 12:05:09;;;;;;;12.02;3.50;;;21.20;99.90;;;;;;5110190;28;20059;-58
2021/08/08 12:07:40;;;;;;;9.43;3.28;;;20.90;99.90;;;;;;5114044;28;20487;-56
2021/08/08 12:10:09;;;;;;;11.02;3.42;;;20.80;99.90;;;;;;5105929;28;21063;-57
2021/08/08 12:12:40;;;;;;;11.32;3.15;;;20.80;99.90;;;;;;5109653;28;20477;-57
2021/08/08 12:15:09;;;;;;;13.00;3.37;;;20.50;99.90;;;;;;5109509;28;20050;-58
2021/08/08 12:17:35;;;;;;;10.18;2.95;;;20.50;99.30;;;;;;5087366;28;20043;-57
2021/08/08 12:20:11;;;;;;;11.00;4.47;;;20.60;97.70;;;;;;5109369;28;20047;-59
2021/08/08 12:22:43;;;;;;;9.57;4.15;;;21.30;99.30;;;;;;5109701;28;20043;-57
2021/08/08 12:25:16;;;;;;;9.00;3.65;;;21.50;95.00;;;;;;5091467;28;20063;-57
2021/08/08 12:27:45;;;;;;;14.73;8.13;;;21.50;90.30;;;;;;5106883;28;20399;-60
2021/08/08 12:30:14;;;;;;;13.27;6.85;;;21.30;85.70;;;;;;5109277;28;20044;-57
2021/08/08 12:32:43;;;;;;;11.15;5.38;;;21.80;91.30;;;;;;5108357;28;20123;-57
2021/08/08 12:35:15;;;;;;;15.02;6.90;;;21.80;91.40;;;;;;5113083;28;20059;-58
2021/08/08 12:37:44;;;;;;;13.05;4.30;;;21.70;90.10;;;;;;5109224;28;20127;-57
2021/08/08 12:40:13;;;;;;;8.63;3.22;;;22.00;94.20;;;;;;5109764;28;20140;-57
2021/08/08 12:42:43;;;;;;;15.80;6.72;;;22.30;93.00;;;;;;5107721;28;20040;-56
2021/08/08 12:45:13;;;;;;;10.00;3.75;;;22.20;91.90;;;;;;5108323;28;20381;-58
2021/08/08 12:47:45;;;;;;;11.85;3.83;;;21.70;85.00;;;;;;5107524;28;20047;-57
2021/08/08 12:50:21;;;;;;;7.90;3.10;;;21.30;86.10;;;;;;5113727;27;20074;-55